createdAt,value
2018-02-07T00:01:58.243Z,30.80
2018-02-07T00:04:25.709Z,29.20
2018-02-07T00:06:53.173Z,31.00
2018-02-07T00:09:21.233Z,32.77
2018-02-07T00:11:48.697Z,30.33
2018-02-07T00:14:16.165Z,30.47
2018-02-07T00:16:43.917Z,29.63
2018-02-07T00:19:11.364Z,30.90
2018-02-07T00:21:38.821Z,32.90
2018-02-07T00:24:06.912Z,31.17
2018-02-07T00:26:34.376Z,32.63
2018-02-07T00:29:01.824Z,30.27
2018-02-07T00:31:29.610Z,30.87
2018-02-07T00:33:58.060Z,30.90
2018-02-07T00:36:25.512Z,32.83
2018-02-07T00:38:53.511Z,30.97
2018-02-07T00:41:20.962Z,33.10
2018-02-07T00:43:48.425Z,32.23
2018-02-07T00:46:16.344Z,31.20
2018-02-07T00:48:43.800Z,32.47
2018-02-07T00:51:11.254Z,30.30
2018-02-07T00:53:38.940Z,31.90
2018-02-07T00:56:06.402Z,28.10
2018-02-07T00:58:33.848Z,32.53
2018-02-07T01:01:01.585Z,31.97
2018-02-07T01:03:29.049Z,31.00
2018-02-07T01:05:56.504Z,33.50
2018-02-07T01:08:24.236Z,30.00
2018-02-07T01:10:51.684Z,32.60
2018-02-07T01:13:19.141Z,31.17
2018-02-07T01:15:46.968Z,31.77
2018-02-07T01:18:14.422Z,29.63
2018-02-07T01:20:41.883Z,36.13
2018-02-07T01:23:09.647Z,31.73
2018-02-07T01:25:37.099Z,31.43
2018-02-07T01:28:04.564Z,32.50
2018-02-07T01:30:32.332Z,32.93
2018-02-07T01:32:59.789Z,31.43
2018-02-07T01:35:27.930Z,32.47
2018-02-07T01:37:55.948Z,31.77
2018-02-07T01:40:23.428Z,35.70
2018-02-07T01:42:50.890Z,33.77
2018-02-07T01:45:18.620Z,33.13
2018-02-07T01:47:46.072Z,33.30
2018-02-07T01:50:13.537Z,33.50
2018-02-07T01:52:43.472Z,32.90
2018-02-07T01:55:10.929Z,34.57
2018-02-07T01:57:38.387Z,33.60
2018-02-07T02:00:06.151Z,31.60
2018-02-07T02:02:33.621Z,33.03
2018-02-07T02:05:01.080Z,31.70
2018-02-07T02:07:29.455Z,33.30
2018-02-07T02:09:56.917Z,32.20
2018-02-07T02:12:24.371Z,30.50
2018-02-07T02:14:52.145Z,32.17
2018-02-07T02:17:19.604Z,32.83
2018-02-07T02:19:47.069Z,35.40
2018-02-07T02:22:14.825Z,32.77
2018-02-07T02:24:42.276Z,30.43
2018-02-07T02:27:09.737Z,31.40
2018-02-07T02:29:37.524Z,31.03
2018-02-07T02:32:04.984Z,31.90
2018-02-07T02:34:32.448Z,29.83
2018-02-07T02:37:01.088Z,32.10
2018-02-07T02:39:28.544Z,33.03
2018-02-07T02:41:56.004Z,33.17
2018-02-07T02:44:23.813Z,34.60
2018-02-07T02:46:51.272Z,32.97
2018-02-07T02:49:18.730Z,33.70
2018-02-07T02:51:46.492Z,34.43
2018-02-07T02:54:13.958Z,34.43
2018-02-07T02:56:41.438Z,36.33
2018-02-07T02:59:09.185Z,33.87
2018-02-07T03:01:36.661Z,35.73
2018-02-07T03:04:04.124Z,34.47
2018-02-07T03:06:31.813Z,39.67
2018-02-07T03:08:59.378Z,39.43
2018-02-07T03:11:26.841Z,39.80
2018-02-07T03:13:54.558Z,39.50
2018-02-07T03:16:22.025Z,38.77
2018-02-07T03:18:49.480Z,42.00
2018-02-07T03:21:17.552Z,41.70
2018-02-07T03:23:45.033Z,40.90
2018-02-07T03:26:12.492Z,42.20
2018-02-07T03:28:40.079Z,43.30
2018-02-07T03:31:07.960Z,42.80
2018-02-07T03:33:35.430Z,43.13
2018-02-07T03:36:03.232Z,43.37
2018-02-07T03:38:31.222Z,42.90
2018-02-07T03:40:58.683Z,43.73
2018-02-07T03:43:26.545Z,42.47
2018-02-07T03:45:54.014Z,43.57
2018-02-07T03:48:21.476Z,42.17
2018-02-07T03:50:49.530Z,41.87
2018-02-07T03:53:17.002Z,43.63
2018-02-07T03:55:44.454Z,44.33
2018-02-07T03:58:12.532Z,41.67
2018-02-07T04:00:40.030Z,43.57
2018-02-07T04:03:07.501Z,46.40
2018-02-07T04:05:35.212Z,45.00
2018-02-07T04:08:02.665Z,46.67
2018-02-07T04:10:30.124Z,44.77
2018-02-07T04:12:58.208Z,46.53
2018-02-07T04:15:25.684Z,43.00
2018-02-07T04:17:53.154Z,44.30
2018-02-07T04:20:20.888Z,46.37
2018-02-07T04:22:48.350Z,44.70
2018-02-07T04:25:15.813Z,43.60
2018-02-07T04:27:43.573Z,46.50
2018-02-07T04:30:11.044Z,49.40
2018-02-07T04:32:38.506Z,45.67
2018-02-07T04:35:06.264Z,48.67
2018-02-07T04:37:34.039Z,53.60
2018-02-07T04:40:01.877Z,53.00
2018-02-07T04:42:30.188Z,45.23
2018-02-07T04:44:57.653Z,43.47
2018-02-07T04:47:25.109Z,44.30
2018-02-07T04:49:52.860Z,44.97
2018-02-07T04:52:20.317Z,45.23
2018-02-07T04:54:47.781Z,46.20
2018-02-07T04:57:15.562Z,45.40
2018-02-07T04:59:43.029Z,47.80
2018-02-07T05:02:10.488Z,43.10
2018-02-07T05:04:38.129Z,43.30
2018-02-07T05:07:05.587Z,46.50
2018-02-07T05:09:33.060Z,46.08
2018-02-07T05:12:00.940Z,47.47
2018-02-07T05:14:28.396Z,46.53
2018-02-07T05:16:55.877Z,45.17
2018-02-07T05:19:23.623Z,47.70
2018-02-07T05:21:51.091Z,49.97
2018-02-07T05:24:18.560Z,48.70
2018-02-07T05:26:46.306Z,41.73
2018-02-07T05:29:13.766Z,43.40
2018-02-07T05:31:41.225Z,41.40
2018-02-07T05:34:08.992Z,44.20
2018-02-07T05:36:36.452Z,40.97
2018-02-07T05:39:03.917Z,40.67
2018-02-07T05:41:33.216Z,42.10
2018-02-07T05:44:00.668Z,45.27
2018-02-07T05:46:28.138Z,42.47
2018-02-07T05:48:55.925Z,39.77
2018-02-07T05:51:23.384Z,42.83
2018-02-07T05:53:50.849Z,40.07
2018-02-07T05:56:18.584Z,36.80
2018-02-07T05:58:46.044Z,38.47
2018-02-07T06:01:13.508Z,39.93
2018-02-07T06:03:41.268Z,39.87
2018-02-07T06:06:08.772Z,41.37
2018-02-07T06:08:36.220Z,41.33
2018-02-07T06:11:03.965Z,40.73
2018-02-07T06:13:31.424Z,40.50
2018-02-07T06:15:58.885Z,39.87
2018-02-07T06:18:26.955Z,41.27
2018-02-07T06:20:54.411Z,41.13
2018-02-07T06:23:21.885Z,40.20
2018-02-07T06:25:49.960Z,38.17
2018-02-07T06:28:17.429Z,43.33
2018-02-07T06:30:44.888Z,42.17
2018-02-07T06:33:12.661Z,42.37
2018-02-07T06:35:40.125Z,38.43
2018-02-07T06:38:07.595Z,38.40
2018-02-07T06:40:35.615Z,40.60
2018-02-07T06:43:03.175Z,42.00
2018-02-07T06:45:30.642Z,40.90
2018-02-07T06:47:58.856Z,41.57
2018-02-07T06:50:26.316Z,40.00
2018-02-07T06:52:53.786Z,41.60
2018-02-07T06:55:21.633Z,39.83
2018-02-07T06:57:49.091Z,41.57
2018-02-07T07:00:16.558Z,43.60
2018-02-07T07:02:44.308Z,43.07
2018-02-07T07:05:11.773Z,44.17
2018-02-07T07:07:39.236Z,44.77
2018-02-07T07:10:06.989Z,41.70
2018-02-07T07:12:34.452Z,39.40
2018-02-07T07:15:01.910Z,42.63
2018-02-07T07:17:29.994Z,41.60
2018-02-07T07:19:57.465Z,40.47
2018-02-07T07:22:24.925Z,40.13
2018-02-07T07:24:52.678Z,39.90
2018-02-07T07:27:20.144Z,41.63
2018-02-07T07:29:47.605Z,39.10
2018-02-07T07:32:15.357Z,38.37
2018-02-07T07:34:42.810Z,39.20
2018-02-07T07:37:10.264Z,42.70
2018-02-07T07:39:38.025Z,39.60
2018-02-07T07:42:05.477Z,44.80
2018-02-07T07:44:33.040Z,40.93
2018-02-07T07:47:00.972Z,43.27
2018-02-07T07:49:28.419Z,39.80
2018-02-07T07:51:55.864Z,40.70
2018-02-07T07:54:24.033Z,40.37
2018-02-07T07:56:51.477Z,38.73
2018-02-07T07:59:18.933Z,39.27
2018-02-07T08:01:46.693Z,36.60
2018-02-07T08:04:14.140Z,37.80
2018-02-07T08:06:41.589Z,37.83
2018-02-07T08:09:09.296Z,35.97
2018-02-07T08:11:36.749Z,37.50
2018-02-07T08:14:04.204Z,41.70
2018-02-07T08:16:32.093Z,37.73
2018-02-07T08:18:59.542Z,40.33
2018-02-07T08:21:26.987Z,37.50
2018-02-07T08:23:54.789Z,35.80
2018-02-07T08:26:22.260Z,39.00
2018-02-07T08:28:49.733Z,40.83
2018-02-07T08:31:17.455Z,37.70
2018-02-07T08:33:44.903Z,40.20
2018-02-07T08:36:12.357Z,42.77
2018-02-07T08:38:40.463Z,38.10
2018-02-07T08:41:07.918Z,40.30
2018-02-07T08:43:35.366Z,39.80
2018-02-07T08:46:03.461Z,38.83
2018-02-07T08:48:30.905Z,37.27
2018-02-07T08:50:58.365Z,37.90
2018-02-07T08:53:26.194Z,36.37
2018-02-07T08:55:53.654Z,36.60
2018-02-07T08:58:21.123Z,36.40
2018-02-07T09:00:49.134Z,37.17
2018-02-07T09:03:16.639Z,39.93
2018-02-07T09:05:44.077Z,39.93
2018-02-07T09:08:11.795Z,41.73
2018-02-07T09:10:39.245Z,41.67
2018-02-07T09:13:06.705Z,40.23
2018-02-07T09:15:34.509Z,38.23
2018-02-07T09:18:01.961Z,39.63
2018-02-07T09:20:29.410Z,38.27
2018-02-07T09:22:57.203Z,38.57
2018-02-07T09:25:24.659Z,40.63
2018-02-07T09:27:52.108Z,37.50
2018-02-07T09:30:20.137Z,39.00
2018-02-07T09:32:47.598Z,38.37
2018-02-07T09:35:15.058Z,37.87
2018-02-07T09:37:43.195Z,40.63
2018-02-07T09:40:10.645Z,34.83
2018-02-07T09:42:38.099Z,37.00
2018-02-07T09:45:05.846Z,38.80
2018-02-07T09:47:33.721Z,41.70
2018-02-07T09:50:01.173Z,43.80
2018-02-07T09:52:29.161Z,42.97
2018-02-07T09:54:56.617Z,42.90
2018-02-07T09:57:24.078Z,44.67
2018-02-07T09:59:51.864Z,44.17
2018-02-07T10:02:19.324Z,46.50
2018-02-07T10:04:46.793Z,44.27
2018-02-07T10:07:14.859Z,43.70
2018-02-07T10:09:42.328Z,41.07
2018-02-07T10:12:09.781Z,42.43
2018-02-07T10:14:37.452Z,41.37
2018-02-07T10:17:04.905Z,42.20
2018-02-07T10:19:32.347Z,41.20
2018-02-07T10:22:00.168Z,42.07
2018-02-07T10:24:27.619Z,41.50
2018-02-07T10:26:55.068Z,40.43
2018-02-07T10:29:22.914Z,40.67
2018-02-07T10:31:50.364Z,40.50
2018-02-07T10:34:17.823Z,42.67
2018-02-07T10:36:45.616Z,43.93
2018-02-07T10:39:13.072Z,41.43
2018-02-07T10:41:40.534Z,40.80
2018-02-07T10:44:08.365Z,43.33
2018-02-07T10:46:35.816Z,42.90
2018-02-07T10:49:05.436Z,41.67
2018-02-07T10:51:33.133Z,42.20
2018-02-07T10:54:00.592Z,40.80
2018-02-07T10:56:28.042Z,43.60
2018-02-07T10:58:55.817Z,41.50
2018-02-07T11:01:23.267Z,44.60
2018-02-07T11:03:50.819Z,44.77
2018-02-07T11:06:18.523Z,48.90
2018-02-07T11:08:45.977Z,46.63
2018-02-07T11:11:13.437Z,47.00
2018-02-07T11:13:41.202Z,46.30
2018-02-07T11:16:08.656Z,45.20
2018-02-07T11:18:36.120Z,43.90
2018-02-07T11:21:03.885Z,47.20
2018-02-07T11:23:31.391Z,48.63
2018-02-07T11:25:58.855Z,45.70
2018-02-07T11:28:26.568Z,46.27
2018-02-07T11:30:54.017Z,45.93
2018-02-07T11:33:21.477Z,47.77
2018-02-07T11:35:49.262Z,41.20
2018-02-07T11:38:16.718Z,44.97
2018-02-07T11:40:44.179Z,44.50
2018-02-07T11:43:11.945Z,43.60
2018-02-07T11:45:39.411Z,46.93
2018-02-07T11:48:06.876Z,44.93
2018-02-07T11:50:35.251Z,60.97
2018-02-07T11:53:02.714Z,48.20
2018-02-07T11:55:30.169Z,49.07
2018-02-07T11:57:59.458Z,48.40
2018-02-07T12:00:26.958Z,46.90
2018-02-07T12:02:54.416Z,48.57
2018-02-07T12:05:22.164Z,46.80
2018-02-07T12:07:49.693Z,45.93
2018-02-07T12:10:17.152Z,46.77
2018-02-07T12:12:44.857Z,49.23
2018-02-07T12:15:12.313Z,50.00
2018-02-07T12:17:39.776Z,47.93
2018-02-07T12:20:07.520Z,47.77
2018-02-07T12:22:34.973Z,47.43
2018-02-07T12:25:02.433Z,61.60
2018-02-07T12:27:30.219Z,50.23
2018-02-07T12:29:57.674Z,51.37
2018-02-07T12:32:25.130Z,46.27
2018-02-07T12:34:52.917Z,46.10
2018-02-07T12:37:20.366Z,47.88
2018-02-07T12:39:47.820Z,50.93
2018-02-07T12:42:15.601Z,46.00
2018-02-07T12:44:43.056Z,43.80
2018-02-07T12:47:10.513Z,46.10
2018-02-07T12:49:38.281Z,47.00
2018-02-07T12:52:05.819Z,45.57
2018-02-07T12:54:33.277Z,45.80
2018-02-07T12:57:00.973Z,47.93
2018-02-07T12:59:28.516Z,46.17
2018-02-07T13:01:55.970Z,46.00
2018-02-07T13:04:23.954Z,50.00
2018-02-07T13:06:51.474Z,47.40
2018-02-07T13:09:20.935Z,50.77
2018-02-07T13:11:49.100Z,47.77
2018-02-07T13:14:16.556Z,45.10
2018-02-07T13:16:44.019Z,46.33
2018-02-07T13:19:11.775Z,45.53
2018-02-07T13:21:39.236Z,44.10
2018-02-07T13:24:06.704Z,47.70
2018-02-07T13:26:34.481Z,46.53
2018-02-07T13:29:01.966Z,49.07
2018-02-07T13:31:29.434Z,42.90
2018-02-07T13:33:57.169Z,39.17
2018-02-07T13:36:24.636Z,43.87
2018-02-07T13:38:52.100Z,45.80
2018-02-07T13:41:19.857Z,45.13
2018-02-07T13:43:47.318Z,48.47
2018-02-07T13:46:14.786Z,39.77
2018-02-07T13:48:42.537Z,41.77
2018-02-07T13:51:10.002Z,43.60
2018-02-07T13:53:37.859Z,41.73
2018-02-07T13:56:05.838Z,42.90
2018-02-07T13:58:33.289Z,38.50
2018-02-07T14:01:00.748Z,35.10
2018-02-07T14:03:28.532Z,36.90
2018-02-07T14:05:55.993Z,34.27
2018-02-07T14:08:23.456Z,36.77
2018-02-07T14:10:51.227Z,35.27
2018-02-07T14:13:18.730Z,36.27
2018-02-07T14:15:46.181Z,34.77
2018-02-07T14:18:13.909Z,34.93
2018-02-07T14:20:41.376Z,36.13
2018-02-07T14:23:08.844Z,35.00
2018-02-07T14:25:36.596Z,36.50
2018-02-07T14:28:04.052Z,34.97
2018-02-07T14:30:31.513Z,34.63
2018-02-07T14:32:59.276Z,35.40
2018-02-07T14:35:26.738Z,36.37
2018-02-07T14:37:54.198Z,49.88
2018-02-07T14:40:22.281Z,40.07
2018-02-07T14:42:49.751Z,38.80
2018-02-07T14:45:17.213Z,37.10
2018-02-07T14:47:44.988Z,33.57
2018-02-07T14:50:12.444Z,36.97
2018-02-07T14:52:39.906Z,39.07
2018-02-07T14:55:08.881Z,30.37
2018-02-07T14:57:36.413Z,33.97
2018-02-07T15:00:03.883Z,32.20
2018-02-07T15:02:31.572Z,31.47
2018-02-07T15:04:59.025Z,35.43
2018-02-07T15:07:26.488Z,34.23
2018-02-07T15:09:54.246Z,31.67
2018-02-07T15:12:21.704Z,32.90
2018-02-07T15:14:49.161Z,34.50
2018-02-07T15:17:16.930Z,33.20
2018-02-07T15:19:44.389Z,34.60
2018-02-07T15:22:11.845Z,37.23
2018-02-07T15:24:39.625Z,34.70
2018-02-07T15:27:07.090Z,36.00
2018-02-07T15:29:34.879Z,37.23
2018-02-07T15:32:02.609Z,37.67
2018-02-07T15:34:30.065Z,38.00
2018-02-07T15:36:57.520Z,39.43
2018-02-07T15:39:25.314Z,37.67
2018-02-07T15:41:52.771Z,37.47
2018-02-07T15:44:20.233Z,31.57
2018-02-07T15:46:48.002Z,32.17
2018-02-07T15:49:15.455Z,33.40
2018-02-07T15:51:42.905Z,37.60
2018-02-07T15:54:10.668Z,44.43
2018-02-07T15:56:40.352Z,37.67
2018-02-07T15:59:08.566Z,38.80
2018-02-07T16:01:36.440Z,38.70
2018-02-07T16:04:03.896Z,39.93
2018-02-07T16:06:31.352Z,40.80
2018-02-07T16:08:59.116Z,38.57
2018-02-07T16:11:26.618Z,36.50
2018-02-07T16:13:54.057Z,40.53
2018-02-07T16:16:21.801Z,36.10
2018-02-07T16:18:49.256Z,38.17
2018-02-07T16:21:16.721Z,39.47
2018-02-07T16:23:44.446Z,37.40
2018-02-07T16:26:11.906Z,41.87
2018-02-07T16:28:39.365Z,40.30
2018-02-07T16:31:07.200Z,40.83
2018-02-07T16:33:34.656Z,42.00
2018-02-07T16:36:02.119Z,42.57
2018-02-07T16:38:30.177Z,41.47
2018-02-07T16:40:57.636Z,42.87
2018-02-07T16:43:25.095Z,39.70
2018-02-07T16:45:52.866Z,42.23
2018-02-07T16:48:20.316Z,41.60
2018-02-07T16:50:47.773Z,42.57
2018-02-07T16:53:15.506Z,43.40
2018-02-07T16:55:42.958Z,41.60
2018-02-07T16:58:11.188Z,43.00
2018-02-07T17:00:39.185Z,40.07
2018-02-07T17:03:06.736Z,43.20
2018-02-07T17:05:34.972Z,37.57
2018-02-07T17:08:02.933Z,37.00
2018-02-07T17:10:30.600Z,35.67
2018-02-07T17:12:58.376Z,35.47
2018-02-07T17:15:26.389Z,37.70
2018-02-07T17:17:54.366Z,36.60
2018-02-07T17:20:23.100Z,33.93
2018-02-07T17:22:50.914Z,35.80
2018-02-07T17:25:18.436Z,43.57
2018-02-07T17:27:45.896Z,56.50
2018-02-07T17:30:14.509Z,36.97
2018-02-07T17:32:42.048Z,37.27
2018-02-07T17:35:09.752Z,43.60
2018-02-07T17:37:37.545Z,54.50
2018-02-07T17:40:05.449Z,38.17
2018-02-07T17:42:33.908Z,35.20
2018-02-07T17:45:01.480Z,34.17
2018-02-07T17:47:28.937Z,32.47
2018-02-07T17:49:56.428Z,32.23
2018-02-07T17:52:25.362Z,37.00
2018-02-07T17:54:53.036Z,33.63
2018-02-07T17:57:20.551Z,34.50
2018-02-07T17:59:48.977Z,31.67
2018-02-07T18:02:16.936Z,40.20
2018-02-07T18:04:45.372Z,34.87
2018-02-07T18:07:13.186Z,30.83
2018-02-07T18:09:40.709Z,31.00
2018-02-07T18:12:08.154Z,29.20
2018-02-07T18:14:36.525Z,32.00
2018-02-07T18:17:04.002Z,29.77
2018-02-07T18:19:31.461Z,29.33
2018-02-07T18:21:59.525Z,32.53
2018-02-07T18:24:27.909Z,31.30
2018-02-07T18:26:56.283Z,36.30
2018-02-07T18:29:23.995Z,38.97
2018-02-07T18:31:51.496Z,41.47
2018-02-07T18:34:19.272Z,36.40
2018-02-07T18:36:47.678Z,34.57
2018-02-07T18:39:15.128Z,34.37
2018-02-07T18:41:43.836Z,37.13
2018-02-07T18:44:11.832Z,37.43
2018-02-07T18:46:39.281Z,36.20
2018-02-07T18:49:06.738Z,43.43
2018-02-07T18:51:34.525Z,35.67
2018-02-07T18:54:01.997Z,37.60
2018-02-07T18:56:29.473Z,39.70
2018-02-07T18:58:57.204Z,39.17
2018-02-07T19:01:25.363Z,40.80
2018-02-07T19:03:52.839Z,40.93
2018-02-07T19:06:20.830Z,44.30
2018-02-07T19:08:48.287Z,44.23
2018-02-07T19:11:15.745Z,42.70
2018-02-07T19:13:43.498Z,45.20
2018-02-07T19:16:10.958Z,46.50
2018-02-07T19:18:38.491Z,46.20
2018-02-07T19:21:06.504Z,43.73
2018-02-07T19:23:33.968Z,42.07
2018-02-07T19:26:01.433Z,44.70
2018-02-07T19:28:29.189Z,45.67
2018-02-07T19:30:56.666Z,50.87
2018-02-07T19:33:24.406Z,58.23
2018-02-07T19:35:52.141Z,51.70
2018-02-07T19:38:19.618Z,53.17
2018-02-07T19:40:47.103Z,58.67
2018-02-07T19:43:14.882Z,50.67
2018-02-07T19:45:42.365Z,53.00
2018-02-07T19:48:09.820Z,51.37
2018-02-07T19:50:37.854Z,51.73
2018-02-07T19:53:05.316Z,54.60
2018-02-07T19:55:32.788Z,51.30
2018-02-07T19:58:00.568Z,51.17
2018-02-07T20:00:28.018Z,53.97
2018-02-07T20:02:57.943Z,55.33
2018-02-07T20:05:26.912Z,50.33
2018-02-07T20:07:54.431Z,54.70
2018-02-07T20:10:21.899Z,54.00
2018-02-07T20:12:50.029Z,52.70
2018-02-07T20:15:18.304Z,56.03
2018-02-07T20:17:46.919Z,56.90
2018-02-07T20:20:14.752Z,53.67
2018-02-07T20:22:42.207Z,51.13
2018-02-07T20:25:09.705Z,57.27
2018-02-07T20:27:37.752Z,61.60
2018-02-07T20:30:05.256Z,53.87
2018-02-07T20:32:32.731Z,55.73
2018-02-07T20:35:01.357Z,53.57
2018-02-07T20:37:29.446Z,59.30
2018-02-07T20:39:57.060Z,60.03
2018-02-07T20:42:26.246Z,61.83
2018-02-07T20:44:53.973Z,58.40
2018-02-07T20:47:21.484Z,58.53
2018-02-07T20:49:49.500Z,56.83
2018-02-07T20:52:16.996Z,57.80
2018-02-07T20:54:45.636Z,56.27
2018-02-07T20:57:13.412Z,58.77
2018-02-07T20:59:40.858Z,59.10
2018-02-07T21:02:08.315Z,59.93
2018-02-07T21:04:37.408Z,58.30
2018-02-07T21:07:05.973Z,60.50
2018-02-07T21:09:33.834Z,66.07
2018-02-07T21:12:02.182Z,60.30
2018-02-07T21:14:29.640Z,65.80
2018-02-07T21:16:57.102Z,63.47
2018-02-07T21:19:25.253Z,66.50
2018-02-07T21:21:52.701Z,59.43
2018-02-07T21:24:20.499Z,55.20
2018-02-07T21:26:50.252Z,64.60
2018-02-07T21:29:18.329Z,70.63
2018-02-07T21:31:45.774Z,63.50
2018-02-07T21:34:13.661Z,61.13
2018-02-07T21:36:41.124Z,62.97
2018-02-07T21:39:08.589Z,64.67
2018-02-07T21:41:36.600Z,59.97
2018-02-07T21:44:04.088Z,60.23
2018-02-07T21:46:31.549Z,65.50
2018-02-07T21:48:59.298Z,63.70
2018-02-07T21:51:26.757Z,57.03
2018-02-07T21:53:54.211Z,62.50
2018-02-07T21:56:22.301Z,62.13
2018-02-07T21:58:49.760Z,62.70
2018-02-07T22:01:17.212Z,66.07
2018-02-07T22:03:44.981Z,58.17
2018-02-07T22:06:13.120Z,66.70
2018-02-07T22:08:40.589Z,61.47
2018-02-07T22:11:08.306Z,61.23
2018-02-07T22:13:35.760Z,55.87
2018-02-07T22:16:03.216Z,58.27
2018-02-07T22:18:30.806Z,56.73
2018-02-07T22:20:58.266Z,59.47
2018-02-07T22:23:25.720Z,57.30
2018-02-07T22:25:53.648Z,55.70
2018-02-07T22:28:21.110Z,57.03
2018-02-07T22:30:48.573Z,57.70
2018-02-07T22:33:16.639Z,54.30
2018-02-07T22:35:44.092Z,53.47
2018-02-07T22:38:11.562Z,56.17
2018-02-07T22:40:39.383Z,56.77
2018-02-07T22:43:06.814Z,58.53
2018-02-07T22:45:34.269Z,57.50
2018-02-07T22:48:02.021Z,54.00
2018-02-07T22:50:29.557Z,55.07
2018-02-07T22:52:57.017Z,58.53
2018-02-07T22:55:25.052Z,57.23
2018-02-07T22:57:52.505Z,55.10
2018-02-07T23:00:19.956Z,54.90
2018-02-07T23:02:48.012Z,53.73
2018-02-07T23:05:15.489Z,55.90
2018-02-07T23:07:43.618Z,58.30
2018-02-07T23:10:11.611Z,56.13
2018-02-07T23:12:39.077Z,55.50
2018-02-07T23:15:06.528Z,55.93
2018-02-07T23:17:34.296Z,55.93
2018-02-07T23:20:01.764Z,60.00
2018-02-07T23:22:29.233Z,61.77
2018-02-07T23:24:56.984Z,59.73
2018-02-07T23:27:24.449Z,58.70
2018-02-07T23:29:51.925Z,59.33
2018-02-07T23:32:19.676Z,56.77
2018-02-07T23:34:47.149Z,57.57
2018-02-07T23:37:14.619Z,61.33
2018-02-07T23:39:42.363Z,55.40
2018-02-07T23:42:09.824Z,57.70
2018-02-07T23:44:37.291Z,63.50
2018-02-07T23:47:05.028Z,50.80
2018-02-07T23:49:32.485Z,57.73
2018-02-07T23:51:59.945Z,59.37
2018-02-07T23:54:28.056Z,61.23
2018-02-07T23:56:55.512Z,58.90
2018-02-07T23:59:22.976Z,61.33
